createdAt,value
2019-04-29T00:01:06.169Z,2.23
2019-04-29T00:03:33.846Z,2.20
2019-04-29T00:06:02.625Z,1.53
2019-04-29T00:08:29.386Z,1.30
2019-04-29T00:10:55.849Z,2.00
2019-04-29T00:13:22.384Z,2.30
2019-04-29T00:15:58.770Z,1.50
2019-04-29T00:18:51.378Z,2.27
2019-04-29T00:21:18.249Z,1.80
2019-04-29T00:23:45.548Z,1.33
2019-04-29T00:26:12.951Z,1.50
2019-04-29T00:28:40.576Z,2.23
2019-04-29T00:31:11.810Z,1.60
2019-04-29T00:33:38.560Z,1.30
2019-04-29T00:36:04.913Z,1.70
2019-04-29T00:38:36.476Z,1.50
2019-04-29T00:41:23.301Z,1.53
2019-04-29T00:43:53.817Z,1.73
2019-04-29T00:46:20.557Z,1.13
2019-04-29T00:48:47.190Z,1.13
2019-04-29T00:51:13.780Z,1.23
2019-04-29T00:53:40.738Z,1.93
2019-04-29T00:56:07.320Z,1.67
2019-04-29T00:58:33.974Z,2.77
2019-04-29T01:01:01.769Z,2.37
2019-04-29T01:03:36.771Z,2.80
2019-04-29T01:06:03.715Z,1.43
2019-04-29T01:08:30.277Z,1.53
2019-04-29T01:10:58.698Z,1.83
2019-04-29T01:13:25.093Z,2.67
2019-04-29T01:15:51.710Z,1.93
2019-04-29T01:18:18.479Z,2.10
2019-04-29T01:20:44.836Z,2.87
2019-04-29T01:23:12.513Z,1.97
2019-04-29T01:25:49.702Z,3.47
2019-04-29T01:28:20.081Z,4.97
2019-04-29T01:31:00.070Z,3.43
2019-04-29T01:33:28.958Z,2.73
2019-04-29T01:36:09.421Z,4.63
2019-04-29T01:38:36.289Z,4.73
2019-04-29T01:41:04.690Z,2.77
2019-04-29T01:43:49.842Z,3.43
2019-04-29T01:46:16.503Z,4.07
2019-04-29T01:48:42.848Z,3.40
2019-04-29T01:51:09.502Z,2.17
2019-04-29T01:53:35.750Z,3.20
2019-04-29T01:56:04.394Z,5.07
2019-04-29T01:58:32.345Z,3.87
2019-04-29T02:00:59.023Z,3.53
2019-04-29T02:03:25.309Z,2.83
2019-04-29T02:05:51.654Z,4.00
2019-04-29T02:08:18.041Z,2.83
2019-04-29T02:10:44.410Z,4.00
2019-04-29T02:13:11.078Z,1.97
2019-04-29T02:15:37.674Z,3.33
2019-04-29T02:18:04.341Z,3.27
2019-04-29T02:20:30.622Z,5.23
2019-04-29T02:23:01.401Z,4.13
2019-04-29T02:25:29.670Z,5.30
2019-04-29T02:27:56.334Z,3.50
2019-04-29T02:30:29.569Z,2.80
2019-04-29T02:32:56.995Z,4.47
2019-04-29T02:35:23.383Z,5.43
2019-04-29T02:37:49.747Z,3.63
2019-04-29T02:40:21.350Z,3.67
2019-04-29T02:42:50.139Z,3.93
2019-04-29T02:45:21.417Z,6.67
2019-04-29T02:47:48.166Z,4.27
2019-04-29T02:50:20.098Z,2.90
2019-04-29T02:52:47.679Z,10.20
2019-04-29T02:55:16.425Z,5.57
2019-04-29T02:57:47.614Z,5.60
2019-04-29T03:00:32.708Z,4.60
2019-04-29T03:03:01.392Z,4.23
2019-04-29T03:05:29.773Z,4.40
2019-04-29T03:07:57.799Z,4.33
2019-04-29T03:10:24.356Z,3.37
2019-04-29T03:12:51.743Z,4.80
2019-04-29T03:15:30.690Z,4.47
2019-04-29T03:17:58.683Z,6.00
2019-04-29T03:20:30.985Z,6.80
2019-04-29T03:23:10.680Z,5.87
2019-04-29T03:25:37.427Z,5.97
2019-04-29T03:28:05.312Z,5.33
2019-04-29T03:30:32.183Z,5.20
2019-04-29T03:32:58.869Z,3.67
2019-04-29T03:35:25.532Z,4.63
2019-04-29T03:37:52.150Z,5.57
2019-04-29T03:40:20.555Z,7.10
2019-04-29T03:42:47.296Z,4.13
2019-04-29T03:45:15.034Z,7.73
2019-04-29T03:47:41.644Z,4.40
2019-04-29T03:50:07.926Z,6.07
2019-04-29T03:52:35.326Z,7.27
2019-04-29T03:55:01.972Z,4.40
2019-04-29T03:57:30.547Z,9.57
2019-04-29T03:59:57.183Z,7.17
2019-04-29T04:02:25.587Z,5.40
2019-04-29T04:05:00.202Z,5.00
2019-04-29T04:07:34.879Z,5.13
2019-04-29T04:10:05.166Z,4.73
2019-04-29T04:12:31.503Z,7.27
2019-04-29T04:15:00.288Z,5.53
2019-04-29T04:17:28.674Z,6.97
2019-04-29T04:19:55.234Z,8.47
2019-04-29T04:22:23.653Z,7.07
2019-04-29T04:24:52.327Z,6.83
2019-04-29T04:27:23.486Z,8.33
2019-04-29T04:29:51.195Z,6.87
2019-04-29T04:32:18.913Z,4.63
2019-04-29T04:34:45.303Z,5.43
2019-04-29T04:37:13.914Z,6.30
2019-04-29T04:39:42.214Z,4.63
2019-04-29T04:42:10.082Z,5.90
2019-04-29T04:44:49.772Z,11.03
2019-04-29T04:47:17.632Z,12.53
2019-04-29T04:49:44.687Z,13.67
2019-04-29T04:52:13.195Z,15.67
2019-04-29T04:54:40.690Z,12.83
2019-04-29T04:57:07.038Z,7.00
2019-04-29T04:59:33.586Z,5.70
2019-04-29T05:02:01.318Z,8.53
2019-04-29T05:04:29.685Z,5.23
2019-04-29T05:06:56.589Z,6.13
2019-04-29T05:09:22.942Z,6.60
2019-04-29T05:11:50.726Z,9.40
2019-04-29T05:14:17.435Z,6.90
2019-04-29T05:16:43.755Z,6.27
2019-04-29T05:19:11.182Z,6.87
2019-04-29T05:21:38.899Z,7.83
2019-04-29T05:24:05.370Z,6.60
2019-04-29T05:26:32.054Z,7.67
2019-04-29T05:29:00.888Z,5.80
2019-04-29T05:31:27.579Z,6.73
2019-04-29T05:33:55.366Z,6.97
2019-04-29T05:36:23.818Z,8.03
2019-04-29T05:38:56.270Z,6.53
2019-04-29T05:41:23.238Z,7.30
2019-04-29T05:43:51.517Z,6.43
2019-04-29T05:46:32.055Z,6.30
2019-04-29T05:49:02.336Z,6.57
2019-04-29T05:51:39.419Z,5.53
2019-04-29T05:54:08.031Z,6.77
2019-04-29T05:56:34.370Z,7.87
2019-04-29T05:59:01.898Z,9.40
2019-04-29T06:01:30.375Z,8.00
2019-04-29T06:03:56.734Z,5.97
2019-04-29T06:06:23.415Z,7.33
2019-04-29T06:08:49.821Z,7.67
2019-04-29T06:11:16.154Z,5.73
2019-04-29T06:13:42.503Z,6.33
2019-04-29T06:16:09.082Z,7.57
2019-04-29T06:18:40.853Z,7.37
2019-04-29T06:21:12.950Z,6.07
2019-04-29T06:23:40.371Z,6.67
2019-04-29T06:26:06.894Z,6.60
2019-04-29T06:28:39.355Z,8.13
2019-04-29T06:31:08.218Z,7.57
2019-04-29T06:33:36.013Z,9.53
2019-04-29T06:36:02.530Z,6.83
2019-04-29T06:38:33.227Z,10.30
2019-04-29T06:40:59.966Z,8.00
2019-04-29T06:43:28.690Z,8.33
2019-04-29T06:45:55.886Z,10.40
2019-04-29T06:48:22.530Z,8.33
2019-04-29T06:50:49.807Z,13.27
2019-04-29T06:53:21.221Z,10.27
2019-04-29T06:55:45.174Z,9.20
2019-04-29T06:58:11.449Z,7.57
2019-04-29T07:00:37.734Z,10.23
2019-04-29T07:03:04.507Z,12.47
2019-04-29T07:05:32.246Z,9.97
2019-04-29T07:07:59.127Z,10.50
2019-04-29T07:10:27.084Z,9.27
2019-04-29T07:12:54.191Z,10.33
2019-04-29T07:15:20.818Z,8.30
2019-04-29T07:17:47.199Z,9.23
2019-04-29T07:20:14.610Z,8.07
2019-04-29T07:22:40.955Z,9.57
2019-04-29T07:25:07.783Z,8.50
2019-04-29T07:27:42.796Z,8.07
2019-04-29T07:30:08.399Z,7.00
2019-04-29T07:32:34.954Z,8.57
2019-04-29T07:35:01.502Z,9.30
2019-04-29T07:37:29.773Z,7.57
2019-04-29T07:39:57.899Z,8.63
2019-04-29T07:42:30.382Z,8.87
2019-04-29T07:45:13.893Z,7.77
2019-04-29T07:47:55.600Z,7.27
2019-04-29T07:50:10.913Z,7.03
2019-04-29T07:52:37.674Z,6.03
2019-04-29T07:55:06.037Z,8.83
2019-04-29T07:57:32.701Z,9.67
2019-04-29T07:59:59.287Z,9.60
2019-04-29T08:02:26.022Z,7.03
2019-04-29T08:04:52.562Z,6.07
2019-04-29T08:07:19.301Z,7.00
2019-04-29T08:09:46.385Z,9.13
2019-04-29T08:12:12.979Z,7.90
2019-04-29T08:14:39.654Z,7.50
2019-04-29T08:17:06.030Z,6.97
2019-04-29T08:19:34.780Z,8.93
2019-04-29T08:22:02.221Z,6.63
2019-04-29T08:24:31.006Z,6.27
2019-04-29T08:26:57.773Z,7.17
2019-04-29T08:29:24.489Z,6.07
2019-04-29T08:32:02.198Z,8.20
2019-04-29T08:34:26.758Z,6.37
2019-04-29T08:36:53.402Z,5.63
2019-04-29T08:39:19.855Z,7.73
2019-04-29T08:41:46.522Z,5.57
2019-04-29T08:44:26.763Z,5.80
2019-04-29T08:47:00.081Z,8.10
2019-04-29T08:49:26.441Z,7.00
2019-04-29T08:51:53.198Z,6.83
2019-04-29T08:54:20.160Z,9.77
2019-04-29T08:57:02.194Z,7.07
2019-04-29T08:59:20.727Z,9.10
2019-04-29T09:01:45.320Z,7.83
2019-04-29T09:04:12.025Z,5.57
2019-04-29T09:06:38.846Z,8.37
2019-04-29T09:09:10.621Z,8.03
2019-04-29T09:11:36.730Z,7.10
2019-04-29T09:14:05.390Z,7.43
2019-04-29T09:16:32.058Z,6.87
2019-04-29T09:19:02.160Z,10.60
2019-04-29T09:21:30.211Z,8.77
2019-04-29T09:23:58.175Z,8.57
2019-04-29T09:26:34.097Z,7.63
2019-04-29T09:29:23.529Z,10.00
2019-04-29T09:31:50.878Z,7.63
2019-04-29T09:34:19.921Z,4.77
2019-04-29T09:36:48.261Z,5.50
2019-04-29T09:39:14.349Z,7.77
2019-04-29T09:41:42.505Z,9.23
2019-04-29T09:44:16.988Z,6.53
2019-04-29T09:46:45.710Z,6.73
2019-04-29T09:49:12.126Z,7.70
2019-04-29T09:51:38.793Z,6.63
2019-04-29T09:54:05.061Z,5.57
2019-04-29T09:56:34.424Z,9.37
2019-04-29T09:59:18.480Z,9.50
2019-04-29T10:01:50.577Z,10.63
2019-04-29T10:04:26.086Z,5.93
2019-04-29T10:06:54.530Z,4.63
2019-04-29T10:09:21.461Z,5.30
2019-04-29T10:11:50.062Z,8.60
2019-04-29T10:14:16.395Z,6.23
2019-04-29T10:16:47.759Z,3.73
2019-04-29T10:19:28.386Z,6.60
2019-04-29T10:21:54.813Z,7.10
2019-04-29T10:24:21.206Z,7.03
2019-04-29T10:26:47.829Z,6.07
2019-04-29T10:29:18.446Z,9.67
2019-04-29T10:31:44.802Z,8.93
2019-04-29T10:34:11.241Z,9.73
2019-04-29T10:36:38.142Z,7.03
2019-04-29T10:39:12.790Z,8.27
2019-04-29T10:41:41.760Z,6.43
2019-04-29T10:44:11.234Z,7.03
2019-04-29T10:46:39.407Z,6.77
2019-04-29T10:49:07.964Z,8.40
2019-04-29T10:51:34.582Z,6.57
2019-04-29T10:54:01.301Z,7.67
2019-04-29T10:56:30.993Z,10.03
2019-04-29T10:58:57.593Z,7.33
2019-04-29T11:01:35.711Z,7.40
2019-04-29T11:04:02.840Z,5.97
2019-04-29T11:06:31.394Z,5.43
2019-04-29T11:09:14.476Z,7.50
2019-04-29T11:11:46.907Z,4.17
2019-04-29T11:14:13.583Z,10.77
2019-04-29T11:16:46.645Z,7.43
2019-04-29T11:19:08.530Z,8.23
2019-04-29T11:21:38.797Z,8.67
2019-04-29T11:24:06.110Z,5.10
2019-04-29T11:26:52.929Z,5.50
2019-04-29T11:29:22.138Z,8.27
2019-04-29T11:31:54.008Z,5.40
2019-04-29T11:34:25.059Z,6.07
2019-04-29T11:36:53.433Z,6.73
2019-04-29T11:39:21.103Z,7.10
2019-04-29T11:41:49.995Z,7.07
2019-04-29T11:44:16.712Z,4.63
2019-04-29T11:46:44.716Z,6.27
2019-04-29T11:49:13.696Z,6.07
2019-04-29T11:52:04.827Z,6.20
2019-04-29T11:54:12.717Z,8.13
2019-04-29T11:56:40.104Z,4.73
2019-04-29T11:59:15.781Z,4.87
2019-04-29T12:01:51.184Z,4.80
2019-04-29T12:04:15.347Z,4.93
2019-04-29T12:06:42.150Z,6.30
2019-04-29T12:09:08.865Z,14.30
2019-04-29T12:11:37.225Z,6.07
2019-04-29T12:14:08.718Z,3.93
2019-04-29T12:16:40.058Z,4.43
2019-04-29T12:19:11.498Z,6.50
2019-04-29T12:21:39.936Z,9.57
2019-04-29T12:24:07.443Z,5.17
2019-04-29T12:26:42.980Z,4.63
2019-04-29T12:29:04.806Z,7.80
2019-04-29T12:31:50.834Z,9.37
2019-04-29T12:34:34.919Z,10.43
2019-04-29T12:37:02.365Z,4.17
2019-04-29T12:39:47.468Z,6.37
2019-04-29T12:42:31.018Z,8.50
2019-04-29T12:44:59.352Z,9.07
2019-04-29T12:47:27.921Z,5.90
2019-04-29T12:49:55.394Z,6.77
2019-04-29T12:52:22.244Z,4.63
2019-04-29T12:54:49.077Z,5.57
2019-04-29T12:57:18.919Z,6.67
2019-04-29T12:59:44.782Z,3.23
2019-04-29T13:02:19.995Z,4.17
2019-04-29T13:04:58.049Z,4.03
2019-04-29T13:07:29.502Z,6.37
2019-04-29T13:10:02.067Z,5.10
2019-04-29T13:12:31.670Z,4.83
2019-04-29T13:15:08.055Z,5.57
2019-04-29T13:17:36.642Z,4.93
2019-04-29T13:20:07.446Z,5.73
2019-04-29T13:22:34.917Z,3.60
2019-04-29T13:25:01.481Z,3.37
2019-04-29T13:27:28.200Z,4.10
2019-04-29T13:29:58.186Z,3.57
2019-04-29T13:32:25.489Z,3.13
2019-04-29T13:34:56.275Z,4.40
2019-04-29T13:37:26.654Z,5.47
2019-04-29T13:39:55.538Z,4.23
2019-04-29T13:42:21.433Z,4.50
2019-04-29T13:45:05.389Z,4.50
2019-04-29T13:47:34.749Z,3.97
2019-04-29T13:50:17.085Z,5.97
2019-04-29T13:52:31.506Z,4.90
2019-04-29T13:55:16.294Z,4.90
2019-04-29T13:57:27.424Z,5.63
2019-04-29T14:00:13.015Z,4.63
2019-04-29T14:02:41.790Z,5.77
2019-04-29T14:05:10.891Z,6.37
2019-04-29T14:07:39.855Z,6.53
2019-04-29T14:10:10.193Z,6.93
2019-04-29T14:12:48.437Z,4.40
2019-04-29T14:15:05.574Z,8.13
2019-04-29T14:17:36.920Z,5.47
2019-04-29T14:20:10.697Z,7.00
2019-04-29T14:22:35.898Z,4.00
2019-04-29T14:25:03.871Z,6.37
2019-04-29T14:27:30.576Z,4.63
2019-04-29T14:29:56.933Z,5.77
2019-04-29T14:32:34.679Z,7.07
2019-04-29T14:35:07.232Z,5.83
2019-04-29T14:37:35.970Z,6.17
2019-04-29T14:40:07.588Z,5.57
2019-04-29T14:42:38.648Z,3.13
2019-04-29T14:45:22.191Z,7.23
2019-04-29T14:47:59.466Z,3.53
2019-04-29T14:50:27.407Z,3.27
2019-04-29T14:52:54.863Z,5.40
2019-04-29T14:55:25.510Z,5.17
2019-04-29T14:57:49.775Z,4.97
2019-04-29T15:00:19.809Z,5.57
2019-04-29T15:02:46.621Z,3.03
2019-04-29T15:05:14.036Z,4.23
2019-04-29T15:07:41.738Z,3.07
2019-04-29T15:10:10.402Z,4.37
2019-04-29T15:12:51.256Z,4.83
2019-04-29T15:15:18.439Z,3.60
2019-04-29T15:17:46.984Z,7.13
2019-04-29T15:20:25.060Z,4.87
2019-04-29T15:22:52.723Z,3.60
2019-04-29T15:25:21.030Z,3.60
2019-04-29T15:27:48.942Z,6.73
2019-04-29T15:30:15.827Z,5.97
2019-04-29T15:32:43.522Z,8.40
2019-04-29T15:35:10.520Z,5.27
2019-04-29T15:37:38.045Z,5.53
2019-04-29T15:40:06.507Z,6.10
2019-04-29T15:42:38.038Z,4.60
2019-04-29T15:45:05.445Z,6.97
2019-04-29T15:47:33.368Z,4.53
2019-04-29T15:50:18.160Z,5.53
2019-04-29T15:52:35.502Z,6.33
2019-04-29T15:55:02.525Z,4.00
2019-04-29T15:57:29.217Z,4.40
2019-04-29T16:00:00.030Z,4.03
2019-04-29T16:02:23.918Z,7.00
2019-04-29T16:05:07.480Z,8.63
2019-04-29T16:07:32.513Z,5.63
2019-04-29T16:10:01.214Z,4.60
2019-04-29T16:12:45.498Z,5.03
2019-04-29T16:15:14.414Z,4.73
2019-04-29T16:17:41.051Z,6.33
2019-04-29T16:20:07.872Z,7.40
2019-04-29T16:22:39.071Z,5.17
2019-04-29T16:27:33.837Z,4.70
2019-04-29T16:30:05.171Z,10.40
2019-04-29T16:32:40.009Z,7.90
2019-04-29T16:35:07.717Z,9.73
2019-04-29T16:37:35.154Z,5.43
2019-04-29T16:40:05.430Z,7.43
2019-04-29T16:42:43.254Z,6.10
2019-04-29T16:45:12.018Z,6.03
2019-04-29T16:47:39.530Z,6.90
2019-04-29T16:50:07.558Z,5.80
2019-04-29T16:52:34.831Z,5.57
2019-04-29T16:55:06.065Z,7.23
2019-04-29T16:57:34.051Z,6.23
2019-04-29T17:00:13.643Z,3.90
2019-04-29T17:02:41.253Z,5.57
2019-04-29T17:05:11.141Z,5.37
2019-04-29T17:07:38.593Z,5.03
2019-04-29T17:10:27.510Z,6.93
2019-04-29T17:12:56.129Z,6.60
2019-04-29T17:15:25.537Z,8.77
2019-04-29T17:17:53.254Z,8.13
2019-04-29T17:20:21.652Z,4.13
2019-04-29T17:22:49.422Z,5.87
2019-04-29T17:25:17.809Z,6.00
2019-04-29T17:27:56.073Z,6.70
2019-04-29T17:30:46.369Z,4.73
2019-04-29T17:33:26.315Z,6.83
2019-04-29T17:35:15.681Z,4.90
2019-04-29T17:35:47.777Z,8.90
2019-04-29T17:38:15.918Z,3.47
2019-04-29T17:40:50.908Z,7.27
2019-04-29T17:43:13.714Z,5.83
2019-04-29T17:45:47.546Z,6.17
2019-04-29T17:48:18.649Z,5.33
2019-04-29T17:50:48.487Z,5.87
2019-04-29T17:53:17.626Z,6.20
2019-04-29T17:55:46.622Z,6.60
2019-04-29T17:58:19.343Z,5.83
2019-04-29T18:01:05.287Z,8.53
2019-04-29T18:03:45.928Z,6.43
2019-04-29T18:06:17.196Z,5.23
2019-04-29T18:08:48.246Z,6.33
2019-04-29T18:11:15.233Z,6.27
2019-04-29T18:13:41.595Z,6.70
2019-04-29T18:16:17.587Z,5.97
2019-04-29T18:18:46.706Z,6.87
2019-04-29T18:21:37.171Z,8.00
2019-04-29T18:24:05.068Z,6.37
2019-04-29T18:26:36.614Z,6.80
2019-04-29T18:29:06.047Z,6.03
2019-04-29T18:31:32.262Z,5.93
2019-04-29T18:34:01.670Z,5.17
2019-04-29T18:36:28.529Z,6.70
2019-04-29T18:38:56.330Z,7.40
2019-04-29T18:41:28.653Z,8.70
2019-04-29T18:43:56.416Z,10.43
2019-04-29T18:46:22.463Z,9.60
2019-04-29T18:48:50.254Z,7.63
2019-04-29T18:51:20.799Z,6.53
2019-04-29T18:53:47.176Z,9.83
2019-04-29T18:56:14.861Z,7.57
2019-04-29T18:58:42.181Z,6.43
2019-04-29T19:01:11.316Z,7.57
2019-04-29T19:03:49.773Z,8.30
2019-04-29T19:06:19.147Z,8.10
2019-04-29T19:08:46.527Z,9.10
2019-04-29T19:11:15.298Z,7.63
2019-04-29T19:13:43.483Z,6.63
2019-04-29T19:16:12.784Z,8.17
2019-04-29T19:18:39.474Z,6.70
2019-04-29T19:21:07.243Z,6.27
2019-04-29T19:23:35.884Z,6.93
2019-04-29T19:26:06.751Z,5.53
2019-04-29T19:28:34.692Z,8.70
2019-04-29T19:31:03.227Z,7.40
2019-04-29T19:33:37.603Z,7.50
2019-04-29T19:35:59.930Z,6.50
2019-04-29T19:38:26.497Z,5.87
2019-04-29T19:40:53.328Z,7.07
2019-04-29T19:43:19.801Z,5.70
2019-04-29T19:45:49.140Z,7.20
2019-04-29T19:48:16.950Z,7.93
2019-04-29T19:50:50.111Z,7.67
2019-04-29T19:53:14.832Z,6.70
2019-04-29T19:55:45.697Z,9.43
2019-04-29T19:58:13.184Z,12.60
2019-04-29T20:00:40.774Z,7.20
2019-04-29T20:03:20.587Z,8.47
2019-04-29T20:05:40.500Z,8.97
2019-04-29T20:08:14.135Z,8.43
2019-04-29T20:10:45.825Z,12.63
2019-04-29T20:13:07.694Z,12.77
2019-04-29T20:15:37.920Z,11.53
2019-04-29T20:18:09.083Z,11.07
2019-04-29T20:20:46.244Z,10.87
2019-04-29T20:23:13.003Z,12.90
2019-04-29T20:25:39.887Z,13.43
2019-04-29T20:28:12.760Z,20.27
2019-04-29T20:30:37.040Z,15.30
2019-04-29T20:33:09.470Z,16.30
2019-04-29T20:35:40.434Z,18.33
2019-04-29T20:38:05.645Z,14.37
2019-04-29T20:40:36.216Z,13.03
2019-04-29T20:43:07.825Z,14.70
2019-04-29T20:45:35.513Z,10.73
2019-04-29T20:48:02.333Z,13.77
2019-04-29T20:50:32.731Z,8.80
2019-04-29T20:53:08.552Z,8.30
2019-04-29T20:55:38.359Z,10.27
2019-04-29T20:58:07.971Z,9.90
2019-04-29T21:00:39.251Z,9.23
2019-04-29T21:03:09.547Z,7.33
2019-04-29T21:05:46.871Z,10.23
2019-04-29T21:08:14.303Z,8.30
2019-04-29T21:10:37.847Z,8.63
2019-04-29T21:13:16.105Z,8.73
2019-04-29T21:15:52.173Z,8.63
2019-04-29T21:18:18.043Z,9.63
2019-04-29T21:20:45.129Z,11.90
2019-04-29T21:23:11.578Z,9.47
2019-04-29T21:25:38.894Z,11.00
2019-04-29T21:28:05.586Z,10.17
2019-04-29T21:30:39.141Z,11.20
2019-04-29T21:33:01.677Z,8.27
2019-04-29T21:35:35.618Z,9.33
2019-04-29T21:38:07.011Z,11.40
2019-04-29T21:40:38.146Z,9.77
2019-04-29T21:43:13.501Z,10.30
2019-04-29T21:45:35.741Z,11.50
2019-04-29T21:48:04.642Z,12.07
2019-04-29T21:50:37.110Z,10.47
2019-04-29T21:53:02.014Z,12.27
2019-04-29T21:55:29.478Z,12.67
2019-04-29T21:57:58.937Z,14.00
2019-04-29T22:00:26.859Z,12.13
2019-04-29T22:02:58.922Z,12.10
2019-04-29T22:05:25.158Z,13.17
2019-04-29T22:07:52.060Z,12.43
2019-04-29T22:10:19.903Z,12.23
2019-04-29T22:12:50.812Z,11.50
2019-04-29T22:15:24.073Z,11.27
2019-04-29T22:17:55.942Z,14.87
2019-04-29T22:20:15.730Z,15.87
2019-04-29T22:22:42.350Z,13.20
2019-04-29T22:25:09.944Z,12.53
2019-04-29T22:27:41.200Z,15.60
2019-04-29T22:30:10.371Z,13.57
2019-04-29T22:32:38.405Z,14.77
2019-04-29T22:35:06.777Z,17.57
2019-04-29T22:37:34.746Z,12.80
2019-04-29T22:40:05.711Z,14.60
2019-04-29T22:42:37.455Z,15.20
2019-04-29T22:45:19.854Z,17.30
2019-04-29T22:47:47.210Z,10.97
2019-04-29T22:50:14.627Z,14.80
2019-04-29T22:52:41.279Z,13.87
2019-04-29T22:55:08.165Z,15.07
2019-04-29T22:57:34.564Z,13.83
2019-04-29T23:00:01.030Z,14.40
2019-04-29T23:02:28.553Z,12.07
2019-04-29T23:04:56.342Z,15.43
2019-04-29T23:07:23.480Z,14.57
2019-04-29T23:09:50.090Z,13.93
2019-04-29T23:12:18.596Z,13.10
2019-04-29T23:14:45.826Z,13.17
2019-04-29T23:17:13.359Z,16.23
2019-04-29T23:19:42.320Z,14.27
2019-04-29T23:22:28.925Z,12.47
2019-04-29T23:24:57.467Z,15.00
2019-04-29T23:27:23.738Z,14.93
2019-04-29T23:29:50.394Z,13.27
2019-04-29T23:32:16.750Z,13.67
2019-04-29T23:34:43.117Z,13.27
2019-04-29T23:37:10.735Z,11.83
2019-04-29T23:39:38.437Z,12.97
2019-04-29T23:42:12.117Z,13.43
2019-04-29T23:44:33.494Z,12.23
2019-04-29T23:47:05.124Z,10.93
2019-04-29T23:49:35.378Z,13.33
2019-04-29T23:52:00.395Z,12.33
2019-04-29T23:54:26.938Z,11.00
2019-04-29T23:57:01.495Z,9.87
2019-04-29T23:59:29.905Z,12.13
